createdAt,value
2019-05-05T00:04:08.893Z,100.00
2019-05-05T00:06:37.530Z,100.00
2019-05-05T00:09:45.999Z,100.00
2019-05-05T00:20:34.666Z,99.77
2019-05-05T00:23:05.218Z,99.91
2019-05-05T00:25:34.289Z,99.91
2019-05-05T00:28:05.031Z,99.35
2019-05-05T00:30:34.444Z,99.16
2019-05-05T00:33:05.385Z,98.75
2019-05-05T00:35:34.475Z,98.69
2019-05-05T00:38:05.029Z,99.16
2019-05-05T00:40:35.318Z,99.62
2019-05-05T00:43:05.457Z,99.81
2019-05-05T00:48:44.448Z,100.00
2019-05-05T00:51:15.135Z,99.49
2019-05-05T00:53:44.916Z,98.95
2019-05-05T00:56:14.703Z,99.74
2019-05-05T00:59:04.483Z,100.00
2019-05-05T01:01:51.966Z,100.00
2019-05-05T01:04:39.697Z,100.00
2019-05-05T01:07:08.405Z,100.00
2019-05-05T01:14:47.757Z,100.00
2019-05-05T01:17:16.428Z,100.00
2019-05-05T01:19:49.498Z,100.00
2019-05-05T01:22:15.460Z,100.00
2019-05-05T01:25:05.428Z,100.00
2019-05-05T01:27:34.789Z,100.00
2019-05-05T01:30:44.547Z,100.00
2019-05-05T01:35:48.737Z,100.00
2019-05-05T01:38:36.494Z,100.00
2019-05-05T01:43:45.229Z,100.00
2019-05-05T01:46:14.795Z,100.00
2019-05-05T01:48:44.547Z,100.00
2019-05-05T01:51:14.324Z,100.00
2019-05-05T01:53:44.414Z,100.00
2019-05-05T02:02:17.511Z,100.00
2019-05-05T02:04:46.155Z,100.00
2019-05-05T02:07:14.946Z,100.00
2019-05-05T02:09:44.932Z,100.00
2019-05-05T02:12:15.836Z,100.00
2019-05-05T02:14:44.623Z,100.00
2019-05-05T02:17:14.450Z,100.00
2019-05-05T02:19:44.305Z,100.00
2019-05-05T02:22:14.739Z,100.00
2019-05-05T02:24:44.654Z,100.00
2019-05-05T02:27:14.569Z,100.00
2019-05-05T02:30:06.182Z,99.78
2019-05-05T02:32:55.185Z,99.42
2019-05-05T02:35:25.618Z,99.22
2019-05-05T02:37:55.754Z,98.73
2019-05-05T02:41:05.081Z,99.55
2019-05-05T02:43:55.708Z,99.71
2019-05-05T02:47:04.872Z,99.94
2019-05-05T02:53:21.523Z,97.28
2019-05-05T02:56:29.949Z,96.02
2019-05-05T02:59:38.408Z,95.28
2019-05-05T03:05:15.220Z,96.84
2019-05-05T03:08:24.227Z,97.32
2019-05-05T03:14:28.655Z,97.86
2019-05-05T03:17:37.184Z,97.26
2019-05-05T03:20:45.616Z,98.05
2019-05-05T03:23:54.743Z,97.51
2019-05-05T03:27:04.193Z,95.22
2019-05-05T03:29:33.581Z,93.99
2019-05-05T03:32:45.532Z,94.78
2019-05-05T03:35:54.160Z,95.95
2019-05-05T03:38:24.796Z,95.29
2019-05-05T03:46:23.942Z,96.34
2019-05-05T03:48:54.048Z,97.33
2019-05-05T03:54:57.532Z,96.81
2019-05-05T03:58:05.990Z,97.48
2019-05-05T04:01:14.537Z,97.00
2019-05-05T04:03:43.590Z,96.63
2019-05-05T04:06:14.572Z,95.37
2019-05-05T04:09:24.250Z,95.20
2019-05-05T04:11:54.022Z,94.45
2019-05-05T04:17:50.727Z,95.25
2019-05-05T04:23:08.539Z,94.67
2019-05-05T04:25:37.224Z,95.18
2019-05-05T04:28:05.879Z,95.59
2019-05-05T04:30:34.562Z,95.22
2019-05-05T04:35:58.472Z,94.66
2019-05-05T04:38:27.086Z,95.37
2019-05-05T04:40:55.662Z,95.83
2019-05-05T04:43:24.692Z,94.95
2019-05-05T04:45:54.616Z,94.63
2019-05-05T04:48:43.908Z,95.44
2019-05-05T04:56:46.573Z,94.44
2019-05-05T04:59:15.201Z,93.16
2019-05-05T05:07:17.886Z,93.79
2019-05-05T05:09:46.443Z,93.42
2019-05-05T05:12:15.119Z,92.39
2019-05-05T05:14:44.186Z,92.28
2019-05-05T05:19:49.250Z,93.96
2019-05-05T05:22:17.869Z,92.42
2019-05-05T05:24:46.499Z,91.46
2019-05-05T05:27:15.113Z,91.89
2019-05-05T05:29:43.800Z,92.26
2019-05-05T05:32:15.558Z,92.98
2019-05-05T05:34:44.214Z,92.01
2019-05-05T05:37:13.488Z,91.48
2019-05-05T05:42:18.609Z,89.80
2019-05-05T05:47:55.551Z,89.70
2019-05-05T05:50:44.299Z,90.08
2019-05-05T05:53:14.026Z,88.40
2019-05-05T05:55:44.805Z,89.58
2019-05-05T05:58:14.419Z,89.76
2019-05-05T06:01:23.946Z,89.39
2019-05-05T06:03:53.678Z,89.24
2019-05-05T06:06:24.122Z,88.93
2019-05-05T06:08:54.413Z,88.60
2019-05-05T06:11:24.249Z,88.40
2019-05-05T06:13:54.493Z,88.70
2019-05-05T06:16:23.581Z,88.31
2019-05-05T06:18:54.124Z,89.24
2019-05-05T06:21:24.170Z,88.08
2019-05-05T06:23:53.737Z,88.03
2019-05-05T06:26:24.025Z,87.75
2019-05-05T06:28:54.114Z,88.17
2019-05-05T06:31:24.550Z,86.95
2019-05-05T06:33:54.443Z,86.90
2019-05-05T06:36:23.426Z,86.56
2019-05-05T06:38:54.141Z,85.38
2019-05-05T06:44:18.589Z,86.83
2019-05-05T06:47:06.362Z,88.32
2019-05-05T06:49:35.041Z,85.20
2019-05-05T06:52:04.237Z,84.55
2019-05-05T06:54:34.847Z,83.97
2019-05-05T06:57:04.693Z,84.47
2019-05-05T06:59:35.163Z,83.82
2019-05-05T07:02:04.343Z,85.27
2019-05-05T07:04:34.479Z,84.68
2019-05-05T07:07:04.890Z,84.83
2019-05-05T07:09:33.753Z,83.19
2019-05-05T07:12:04.327Z,82.70
2019-05-05T07:14:33.996Z,83.70
2019-05-05T07:17:05.133Z,83.61
2019-05-05T07:19:34.500Z,84.01
2019-05-05T07:22:04.254Z,85.31
2019-05-05T07:24:34.679Z,82.27
2019-05-05T07:27:24.437Z,83.85
2019-05-05T07:29:54.456Z,82.60
2019-05-05T07:32:24.551Z,82.73
2019-05-05T07:37:34.428Z,81.62
2019-05-05T07:42:58.077Z,83.68
2019-05-05T07:45:26.765Z,84.08
2019-05-05T07:47:55.453Z,84.14
2019-05-05T07:50:29.559Z,82.44
2019-05-05T07:52:54.680Z,82.97
2019-05-05T07:55:23.833Z,81.81
2019-05-05T07:57:53.959Z,80.85
2019-05-05T08:00:24.094Z,80.26
2019-05-05T08:03:14.335Z,78.58
2019-05-05T08:05:44.350Z,79.14
2019-05-05T08:08:14.395Z,79.44
2019-05-05T08:10:43.764Z,79.34
2019-05-05T08:13:14.113Z,75.95
2019-05-05T08:21:25.215Z,75.30
2019-05-05T08:24:13.963Z,77.27
2019-05-05T08:29:51.671Z,77.34
2019-05-05T08:32:39.440Z,78.92
2019-05-05T08:35:08.231Z,77.09
2019-05-05T08:37:36.835Z,74.23
2019-05-05T08:40:24.912Z,75.71
2019-05-05T08:42:54.042Z,74.70
2019-05-05T08:45:26.638Z,73.20
2019-05-05T08:47:54.397Z,73.98
2019-05-05T08:50:26.758Z,74.04
2019-05-05T08:52:53.789Z,70.42
2019-05-05T08:55:24.873Z,69.59
2019-05-05T08:57:54.169Z,69.30
2019-05-05T09:00:24.495Z,69.50
2019-05-05T09:02:54.358Z,67.80
2019-05-05T09:05:43.685Z,68.90
2019-05-05T09:08:13.978Z,68.51
2019-05-05T09:10:44.781Z,69.46
2019-05-05T09:13:14.518Z,64.39
2019-05-05T09:16:04.015Z,67.67
2019-05-05T09:18:33.921Z,66.12
2019-05-05T09:21:04.395Z,68.54
2019-05-05T09:29:17.249Z,71.34
2019-05-05T09:31:45.886Z,72.07
2019-05-05T09:34:14.773Z,70.52
2019-05-05T09:36:43.993Z,70.65
2019-05-05T09:39:13.953Z,70.83
2019-05-05T09:41:44.688Z,67.33
2019-05-05T09:44:14.485Z,69.79
2019-05-05T09:46:44.623Z,64.53
2019-05-05T09:49:14.180Z,61.52
2019-05-05T09:54:25.795Z,63.40
2019-05-05T09:57:34.454Z,63.83
2019-05-05T10:00:44.419Z,64.56
2019-05-05T10:03:14.512Z,66.34
2019-05-05T10:06:24.395Z,63.71
2019-05-05T10:08:53.903Z,66.04
2019-05-05T10:11:24.056Z,67.24
2019-05-05T10:13:54.554Z,68.33
2019-05-05T10:16:23.567Z,68.58
2019-05-05T10:18:54.179Z,70.14
2019-05-05T10:21:24.662Z,70.59
2019-05-05T10:26:43.844Z,71.48
2019-05-05T10:29:13.670Z,71.89
2019-05-05T10:31:43.671Z,66.14
2019-05-05T10:34:33.494Z,66.17
2019-05-05T10:37:04.238Z,61.16
2019-05-05T10:42:08.671Z,56.69
2019-05-05T10:44:37.311Z,58.78
2019-05-05T10:47:05.986Z,61.07
2019-05-05T10:49:34.562Z,58.40
2019-05-05T10:52:03.841Z,55.05
2019-05-05T10:54:43.284Z,54.14
2019-05-05T10:57:04.236Z,52.01
2019-05-05T10:59:34.393Z,53.48
2019-05-05T11:04:58.175Z,58.22
2019-05-05T11:07:26.897Z,56.98
2019-05-05T11:09:55.567Z,56.68
2019-05-05T11:12:24.707Z,57.10
2019-05-05T11:14:54.618Z,61.19
2019-05-05T11:17:24.802Z,57.37
2019-05-05T11:19:53.598Z,58.39
2019-05-05T11:22:24.189Z,58.28
2019-05-05T11:24:58.306Z,54.20
2019-05-05T11:27:24.127Z,53.63
2019-05-05T11:30:14.296Z,54.98
2019-05-05T11:33:03.954Z,54.23
2019-05-05T11:35:53.760Z,57.73
2019-05-05T11:38:21.963Z,54.72
2019-05-05T11:40:50.618Z,50.99
2019-05-05T11:43:19.163Z,53.50
2019-05-05T11:45:47.808Z,54.50
2019-05-05T11:48:16.441Z,53.42
2019-05-05T11:50:45.126Z,54.24
2019-05-05T11:53:14.495Z,52.71
2019-05-05T11:55:44.454Z,49.81
2019-05-05T11:58:14.581Z,49.36
2019-05-05T12:00:43.980Z,48.83
2019-05-05T12:03:14.331Z,53.82
2019-05-05T12:05:44.411Z,52.54
2019-05-05T12:08:14.785Z,50.36
2019-05-05T12:13:20.164Z,56.19
2019-05-05T12:18:28.406Z,52.18
2019-05-05T12:20:57.042Z,49.20
2019-05-05T12:23:25.713Z,50.36
2019-05-05T12:28:54.652Z,52.48
2019-05-05T12:34:12.483Z,47.62
2019-05-05T12:36:41.089Z,43.34
2019-05-05T12:41:58.988Z,44.78
2019-05-05T12:47:23.630Z,43.92
2019-05-05T12:49:54.412Z,44.22
2019-05-05T12:52:22.809Z,44.72
2019-05-05T12:54:51.484Z,44.38
2019-05-05T12:57:20.118Z,44.82
2019-05-05T12:59:48.825Z,45.46
2019-05-05T13:02:17.454Z,47.21
2019-05-05T13:04:46.127Z,45.15
2019-05-05T13:07:14.781Z,43.11
2019-05-05T13:09:44.083Z,44.42
2019-05-05T13:12:15.037Z,41.52
2019-05-05T13:14:44.284Z,42.53
2019-05-05T13:17:14.215Z,42.88
2019-05-05T13:20:02.574Z,45.81
2019-05-05T13:22:50.317Z,45.30
2019-05-05T13:25:38.118Z,47.20
2019-05-05T13:28:06.828Z,47.60
2019-05-05T13:30:35.479Z,47.29
2019-05-05T13:33:04.145Z,47.88
2019-05-05T13:35:34.033Z,49.00
2019-05-05T13:38:04.126Z,50.37
2019-05-05T13:40:34.541Z,48.72
2019-05-05T13:43:04.367Z,50.19
2019-05-05T13:45:54.051Z,49.64
2019-05-05T13:48:22.808Z,48.94
2019-05-05T13:51:10.578Z,48.63
2019-05-05T13:53:39.198Z,46.75
2019-05-05T13:56:12.356Z,46.20
2019-05-05T13:58:38.244Z,47.08
2019-05-05T14:01:09.687Z,42.88
2019-05-05T14:03:37.322Z,42.18
2019-05-05T14:06:06.017Z,45.47
2019-05-05T14:08:36.369Z,41.07
2019-05-05T14:11:05.042Z,40.56
2019-05-05T14:13:34.243Z,41.99
2019-05-05T14:16:04.086Z,41.75
2019-05-05T14:18:32.759Z,39.24
2019-05-05T14:21:01.448Z,39.56
2019-05-05T14:26:38.523Z,40.79
2019-05-05T14:29:45.524Z,42.79
2019-05-05T14:40:34.012Z,37.67
2019-05-05T14:43:04.419Z,37.47
2019-05-05T14:45:34.033Z,40.29
2019-05-05T14:48:03.980Z,43.37
2019-05-05T14:50:34.732Z,44.85
2019-05-05T14:53:04.185Z,47.14
2019-05-05T14:55:33.606Z,45.98
2019-05-05T14:58:03.982Z,40.57
2019-05-05T15:00:33.795Z,36.95
2019-05-05T15:03:03.647Z,38.23
2019-05-05T15:05:51.948Z,38.17
2019-05-05T15:08:39.765Z,36.95
2019-05-05T15:11:27.576Z,36.57
2019-05-05T15:13:56.285Z,37.04
2019-05-05T15:16:25.004Z,36.65
2019-05-05T15:18:53.647Z,35.09
2019-05-05T15:21:23.632Z,37.66
2019-05-05T15:23:54.085Z,36.93
2019-05-05T15:26:23.793Z,37.65
2019-05-05T15:29:01.222Z,38.88
2019-05-05T15:31:23.898Z,39.51
2019-05-05T15:33:53.541Z,37.73
2019-05-05T15:36:24.322Z,35.23
2019-05-05T15:38:55.045Z,35.74
2019-05-05T15:41:44.593Z,39.33
2019-05-05T15:44:13.536Z,40.11
2019-05-05T15:46:44.192Z,39.35
2019-05-05T15:49:14.029Z,36.92
2019-05-05T15:51:44.290Z,36.05
2019-05-05T15:54:14.094Z,35.81
2019-05-05T16:05:54.350Z,31.47
2019-05-05T16:08:22.927Z,35.45
2019-05-05T16:14:46.258Z,33.05
2019-05-05T16:17:35.281Z,33.97
2019-05-05T16:20:44.334Z,37.99
2019-05-05T16:26:21.721Z,38.76
2019-05-05T16:28:50.362Z,39.54
2019-05-05T16:31:19.031Z,41.03
2019-05-05T16:33:48.728Z,41.86
2019-05-05T16:36:18.083Z,42.71
2019-05-05T16:38:46.641Z,43.17
2019-05-05T16:41:15.521Z,43.03
2019-05-05T16:43:45.632Z,43.51
2019-05-05T16:46:17.102Z,44.28
2019-05-05T16:48:44.665Z,44.79
2019-05-05T16:51:33.334Z,45.15
2019-05-05T16:56:38.060Z,43.52
2019-05-05T16:59:06.752Z,45.46
2019-05-05T17:01:35.754Z,46.61
2019-05-05T17:04:11.179Z,44.44
2019-05-05T17:06:36.187Z,46.61
2019-05-05T17:09:44.602Z,46.19
2019-05-05T17:12:14.124Z,47.51
2019-05-05T17:17:53.927Z,48.71
2019-05-05T17:20:41.472Z,47.14
2019-05-05T17:25:49.684Z,45.79
2019-05-05T17:28:18.357Z,46.11
2019-05-05T17:30:47.104Z,46.54
2019-05-05T17:33:15.738Z,46.97
2019-05-05T17:35:44.389Z,48.80
2019-05-05T17:46:18.607Z,50.21
2019-05-05T17:49:26.965Z,53.24
2019-05-05T17:52:14.826Z,51.59
2019-05-05T17:55:04.575Z,49.08
2019-05-05T17:57:34.541Z,49.50
2019-05-05T18:00:24.291Z,49.37
2019-05-05T18:02:53.440Z,48.77
2019-05-05T18:05:44.650Z,49.11
2019-05-05T18:08:33.776Z,47.79
2019-05-05T18:14:00.820Z,50.45
2019-05-05T18:16:48.687Z,50.94
2019-05-05T18:19:17.329Z,53.83
2019-05-05T18:21:45.996Z,55.79
2019-05-05T18:24:14.614Z,52.92
2019-05-05T18:26:43.635Z,55.86
2019-05-05T18:29:14.556Z,58.58
2019-05-05T18:31:44.067Z,61.38
2019-05-05T18:34:13.485Z,59.30
2019-05-05T18:36:44.525Z,60.68
2019-05-05T18:39:13.805Z,63.10
2019-05-05T18:42:04.354Z,62.44
2019-05-05T18:44:54.024Z,63.43
2019-05-05T18:47:25.186Z,62.55
2019-05-05T18:49:54.002Z,62.41
2019-05-05T18:52:24.606Z,62.20
2019-05-05T18:54:54.553Z,61.15
2019-05-05T18:57:24.806Z,62.87
2019-05-05T18:59:54.785Z,63.47
2019-05-05T19:05:34.327Z,65.19
2019-05-05T19:08:24.440Z,67.23
2019-05-05T19:10:54.411Z,66.61
2019-05-05T19:13:24.477Z,68.32
2019-05-05T19:16:14.227Z,68.51
2019-05-05T19:18:44.742Z,69.40
2019-05-05T19:21:34.036Z,68.91
2019-05-05T19:24:03.854Z,69.35
2019-05-05T19:26:33.791Z,70.79
2019-05-05T19:29:05.061Z,69.38
2019-05-05T19:31:36.494Z,69.49
2019-05-05T19:34:07.670Z,68.73
2019-05-05T19:36:37.095Z,69.45
2019-05-05T19:39:45.542Z,69.75
2019-05-05T19:42:14.459Z,72.25
2019-05-05T19:44:44.504Z,72.66
2019-05-05T19:50:21.459Z,73.43
2019-05-05T19:52:50.151Z,72.75
2019-05-05T19:55:18.797Z,74.35
2019-05-05T19:57:47.585Z,74.11
2019-05-05T20:00:26.278Z,73.58
2019-05-05T20:03:03.734Z,74.30
2019-05-05T20:05:24.846Z,74.40
2019-05-05T20:07:55.329Z,75.67
2019-05-05T20:10:24.010Z,77.14
2019-05-05T20:12:54.057Z,76.64
2019-05-05T20:15:44.297Z,76.20
2019-05-05T20:18:14.212Z,76.23
2019-05-05T20:20:44.536Z,75.91
2019-05-05T20:23:13.758Z,75.84
2019-05-05T20:25:44.801Z,76.94
2019-05-05T20:28:14.572Z,77.80
2019-05-05T20:30:44.631Z,78.16
2019-05-05T20:33:33.783Z,78.53
2019-05-05T20:43:57.925Z,78.45
2019-05-05T20:46:26.539Z,79.21
2019-05-05T20:48:55.595Z,80.32
2019-05-05T20:52:04.186Z,81.21
2019-05-05T20:54:32.865Z,82.61
2019-05-05T20:57:20.742Z,83.19
2019-05-05T20:59:49.221Z,84.06
2019-05-05T21:02:17.926Z,83.36
2019-05-05T21:05:05.739Z,82.89
2019-05-05T21:07:34.762Z,83.52
2019-05-05T21:10:44.581Z,84.39
2019-05-05T21:13:14.421Z,84.13
2019-05-05T21:15:45.100Z,84.37
2019-05-05T21:18:14.446Z,83.99
2019-05-05T21:20:44.414Z,83.35
2019-05-05T21:23:34.115Z,83.05
2019-05-05T21:28:53.747Z,84.12
2019-05-05T21:31:23.939Z,83.51
2019-05-05T21:33:54.805Z,83.62
2019-05-05T21:36:24.293Z,81.84
2019-05-05T21:38:54.766Z,81.13
2019-05-05T21:41:24.427Z,81.34
2019-05-05T21:44:14.696Z,83.01
2019-05-05T21:47:03.032Z,83.52
2019-05-05T21:49:33.668Z,83.44
2019-05-05T21:52:21.258Z,83.39
2019-05-05T22:00:54.889Z,83.98
2019-05-05T22:06:00.567Z,85.26
2019-05-05T22:08:29.200Z,86.23
2019-05-05T22:10:57.814Z,86.38
2019-05-05T22:13:26.548Z,87.19
2019-05-05T22:15:55.157Z,87.02
2019-05-05T22:18:23.806Z,86.96
2019-05-05T22:21:14.007Z,87.12
2019-05-05T22:23:44.057Z,87.06
2019-05-05T22:26:14.593Z,87.94
2019-05-05T22:28:44.615Z,88.43
2019-05-05T22:31:14.177Z,88.94
2019-05-05T22:33:44.732Z,89.16
2019-05-05T22:36:14.158Z,88.99
2019-05-05T22:38:44.575Z,89.39
2019-05-05T22:41:15.750Z,89.44
2019-05-05T22:43:44.324Z,89.68
2019-05-05T22:46:14.211Z,89.62
2019-05-05T22:48:44.374Z,88.90
2019-05-05T22:51:14.471Z,89.29
2019-05-05T22:53:44.098Z,89.37
2019-05-05T22:56:14.795Z,89.96
2019-05-05T22:58:44.121Z,90.08
2019-05-05T23:01:13.591Z,89.22
2019-05-05T23:04:03.667Z,89.27
2019-05-05T23:06:51.823Z,89.88
2019-05-05T23:09:20.440Z,89.65
2019-05-05T23:11:49.115Z,89.97
2019-05-05T23:14:36.799Z,90.25
2019-05-05T23:22:35.485Z,90.62
2019-05-05T23:31:07.279Z,90.11
2019-05-05T23:33:35.921Z,90.34
2019-05-05T23:36:04.590Z,90.98
2019-05-05T23:38:34.757Z,90.98
2019-05-05T23:41:03.952Z,91.19
2019-05-05T23:43:34.537Z,91.12
2019-05-05T23:46:04.323Z,90.98
2019-05-05T23:48:34.731Z,90.60
2019-05-05T23:51:04.523Z,91.53
2019-05-05T23:53:34.453Z,91.86
2019-05-05T23:56:04.084Z,92.36
2019-05-05T23:58:34.657Z,92.34
